createdAt,value
2019-05-18T00:02:11.898Z,6.00
2019-05-18T00:06:18.229Z,5.90
2019-05-18T00:10:25.182Z,5.80
2019-05-18T00:14:31.481Z,5.90
2019-05-18T00:18:37.806Z,5.80
2019-05-18T00:22:44.705Z,5.80
2019-05-18T00:26:51.876Z,5.80
2019-05-18T00:30:59.665Z,5.80
2019-05-18T00:35:08.049Z,5.60
2019-05-18T00:39:30.839Z,5.50
2019-05-18T00:43:37.473Z,5.50
2019-05-18T00:47:43.490Z,5.60
2019-05-18T00:51:49.855Z,5.60
2019-05-18T00:55:56.118Z,5.50
2019-05-18T01:00:02.960Z,5.40
2019-05-18T01:04:09.501Z,5.30
2019-05-18T01:08:15.590Z,5.40
2019-05-18T01:12:21.650Z,5.40
2019-05-18T01:16:27.763Z,5.30
2019-05-18T01:20:34.195Z,5.30
2019-05-18T01:24:40.797Z,5.20
2019-05-18T01:28:46.751Z,5.20
2019-05-18T01:32:52.932Z,5.10
2019-05-18T01:36:58.915Z,5.00
2019-05-18T01:41:05.727Z,5.00
2019-05-18T01:45:29.852Z,5.00
2019-05-18T01:49:35.988Z,5.20
2019-05-18T01:53:41.854Z,5.40
2019-05-18T01:57:48.398Z,5.50
2019-05-18T02:01:54.374Z,5.50
2019-05-18T02:06:00.679Z,5.50
2019-05-18T02:10:06.962Z,5.40
2019-05-18T02:14:13.170Z,5.30
2019-05-18T02:18:28.721Z,5.10
2019-05-18T02:22:27.237Z,5.10
2019-05-18T02:26:33.285Z,5.00
2019-05-18T02:30:39.703Z,5.10
2019-05-18T02:34:46.121Z,5.00
2019-05-18T02:38:52.883Z,5.00
2019-05-18T02:42:58.978Z,4.90
2019-05-18T02:47:05.077Z,4.90
2019-05-18T02:51:29.626Z,5.00
2019-05-18T02:55:36.023Z,5.50
2019-05-18T02:59:42.938Z,5.90
2019-05-18T03:03:49.307Z,6.20
2019-05-18T03:07:55.576Z,6.30
2019-05-18T03:12:02.039Z,6.50
2019-05-18T03:16:08.380Z,6.70
2019-05-18T03:20:14.917Z,6.80
2019-05-18T03:24:21.169Z,6.90
2019-05-18T03:28:27.667Z,7.00
2019-05-18T03:32:33.928Z,6.90
2019-05-18T03:36:40.293Z,6.90
2019-05-18T03:40:46.635Z,6.90
2019-05-18T03:44:53.126Z,6.90
2019-05-18T03:49:26.659Z,7.10
2019-05-18T03:53:27.042Z,7.30
2019-05-18T03:57:33.299Z,8.10
2019-05-18T04:01:40.071Z,8.70
2019-05-18T04:05:47.017Z,8.60
2019-05-18T04:09:53.331Z,8.40
2019-05-18T04:13:59.577Z,8.70
2019-05-18T04:18:05.895Z,10.10
2019-05-18T04:22:12.187Z,12.00
2019-05-18T04:26:18.780Z,14.10
2019-05-18T04:30:26.115Z,16.20
2019-05-18T04:34:32.579Z,17.80
2019-05-18T04:38:38.916Z,19.20
2019-05-18T04:42:45.259Z,19.70
2019-05-18T04:46:51.522Z,20.30
2019-05-18T04:50:58.246Z,20.20
2019-05-18T04:55:23.520Z,19.90
2019-05-18T04:59:29.919Z,20.10
2019-05-18T05:03:36.179Z,19.50
2019-05-18T05:07:42.781Z,19.40
2019-05-18T05:11:49.018Z,19.60
2019-05-18T05:15:55.406Z,20.80
2019-05-18T05:20:02.519Z,21.60
2019-05-18T05:24:08.847Z,22.40
2019-05-18T05:28:15.104Z,22.20
2019-05-18T05:32:21.773Z,22.40
2019-05-18T05:36:27.989Z,23.20
2019-05-18T05:40:34.388Z,23.40
2019-05-18T05:44:40.746Z,24.10
2019-05-18T05:48:47.358Z,23.10
2019-05-18T05:52:53.797Z,22.60
2019-05-18T05:57:00.445Z,24.20
2019-05-18T06:01:24.904Z,24.00
2019-05-18T06:05:32.150Z,23.20
2019-05-18T06:09:49.928Z,25.00
2019-05-18T06:14:12.336Z,24.60
2019-05-18T06:18:18.646Z,23.70
2019-05-18T06:22:26.558Z,23.90
2019-05-18T06:26:33.030Z,25.30
2019-05-18T06:30:39.358Z,26.20
2019-05-18T06:34:45.893Z,26.70
2019-05-18T06:38:53.808Z,25.50
2019-05-18T06:43:00.977Z,25.30
2019-05-18T06:47:07.350Z,25.80
2019-05-18T06:51:13.904Z,27.30
2019-05-18T06:55:20.301Z,26.20
2019-05-18T06:59:27.954Z,25.30
2019-05-18T07:03:34.381Z,26.10
2019-05-18T07:07:40.869Z,26.80
2019-05-18T07:11:47.790Z,26.90
2019-05-18T07:15:54.870Z,27.80
2019-05-18T07:20:01.385Z,27.50
2019-05-18T07:24:10.177Z,26.60
2019-05-18T07:28:19.627Z,26.40
2019-05-18T07:32:43.852Z,27.60
2019-05-18T07:37:08.099Z,28.40
2019-05-18T07:41:15.210Z,29.00
2019-05-18T07:45:39.965Z,29.30
2019-05-18T07:50:07.005Z,31.70
2019-05-18T07:54:15.561Z,34.00
2019-05-18T07:58:23.231Z,34.70
2019-05-18T08:02:43.417Z,31.80
2019-05-18T08:07:08.066Z,32.20
2019-05-18T08:11:18.904Z,33.90
2019-05-18T08:15:43.334Z,35.90
2019-05-18T08:20:09.061Z,34.70
2019-05-18T08:24:15.460Z,33.50
2019-05-18T08:28:29.150Z,33.50
2019-05-18T08:32:35.606Z,36.20
2019-05-18T08:36:42.137Z,36.40
2019-05-18T08:40:50.623Z,36.00
2019-05-18T08:45:10.560Z,36.00
2019-05-18T08:49:35.107Z,36.30
2019-05-18T08:54:00.893Z,36.50
2019-05-18T08:58:22.480Z,36.50
2019-05-18T09:02:48.178Z,34.60
2019-05-18T09:07:13.148Z,34.00
2019-05-18T09:11:37.611Z,33.60
2019-05-18T09:16:02.991Z,33.20
2019-05-18T09:20:28.130Z,33.70
2019-05-18T09:24:52.817Z,33.70
2019-05-18T09:29:01.828Z,33.10
2019-05-18T09:33:11.291Z,32.70
2019-05-18T09:37:35.750Z,32.70
2019-05-18T09:41:42.788Z,34.40
2019-05-18T09:45:50.369Z,34.60
2019-05-18T09:50:15.297Z,34.20
2019-05-18T09:54:41.288Z,35.40
2019-05-18T09:59:02.207Z,35.70
2019-05-18T10:03:09.346Z,36.30
2019-05-18T10:07:34.374Z,38.10
2019-05-18T10:11:58.514Z,38.30
2019-05-18T10:16:23.202Z,36.80
2019-05-18T10:20:30.242Z,36.90
2019-05-18T10:24:55.609Z,38.30
2019-05-18T10:29:20.868Z,39.90
2019-05-18T10:33:46.134Z,37.70
2019-05-18T10:38:10.997Z,36.50
2019-05-18T10:42:35.377Z,35.90
2019-05-18T10:46:43.953Z,34.90
2019-05-18T10:50:54.297Z,35.80
2019-05-18T10:55:19.429Z,35.00
2019-05-18T10:59:44.342Z,34.50
2019-05-18T11:04:09.402Z,34.00
2019-05-18T11:08:17.054Z,33.40
2019-05-18T11:12:26.251Z,32.60
2019-05-18T11:16:50.981Z,29.80
2019-05-18T11:21:07.410Z,28.50
2019-05-18T11:25:21.579Z,27.30
2019-05-18T11:29:46.385Z,25.70
2019-05-18T11:34:10.642Z,24.50
2019-05-18T11:38:34.830Z,23.70
2019-05-18T11:42:59.601Z,23.60
2019-05-18T11:47:07.908Z,23.30
2019-05-18T11:51:14.773Z,22.50
2019-05-18T11:55:21.373Z,22.00
2019-05-18T11:59:29.329Z,21.70
2019-05-18T12:03:35.568Z,21.10
2019-05-18T12:07:44.025Z,20.70
2019-05-18T12:11:51.537Z,20.60
2019-05-18T12:15:58.266Z,20.60
2019-05-18T12:20:08.777Z,20.50
2019-05-18T12:24:16.075Z,20.60
2019-05-18T12:28:23.042Z,20.50
2019-05-18T12:32:31.798Z,20.20
2019-05-18T12:36:39.156Z,20.00
2019-05-18T12:40:45.677Z,20.20
2019-05-18T12:44:52.216Z,20.40
2019-05-18T12:49:02.215Z,20.40
2019-05-18T12:53:13.156Z,20.30
2019-05-18T12:57:19.549Z,20.30
2019-05-18T13:01:26.629Z,20.60
2019-05-18T13:05:51.985Z,20.50
2019-05-18T13:09:59.905Z,20.30
2019-05-18T13:14:09.346Z,20.10
2019-05-18T13:18:19.087Z,20.00
2019-05-18T13:22:29.692Z,20.10
2019-05-18T13:26:54.394Z,20.20
2019-05-18T13:31:08.198Z,20.40
2019-05-18T13:35:14.841Z,20.40
2019-05-18T13:39:31.348Z,20.10
2019-05-18T13:43:38.476Z,20.10
2019-05-18T13:47:44.861Z,20.20
2019-05-18T13:51:51.681Z,20.30
2019-05-18T13:55:58.529Z,20.50
2019-05-18T14:00:07.240Z,20.50
2019-05-18T14:04:20.161Z,20.40
2019-05-18T14:08:27.481Z,20.40
2019-05-18T14:12:33.881Z,20.40
2019-05-18T14:16:40.286Z,20.50
2019-05-18T14:20:48.395Z,20.60
2019-05-18T14:24:56.309Z,20.70
2019-05-18T14:29:05.423Z,20.70
2019-05-18T14:33:12.311Z,20.80
2019-05-18T14:37:18.609Z,20.80
2019-05-18T14:41:31.210Z,20.80
2019-05-18T14:45:39.929Z,20.90
2019-05-18T14:49:48.175Z,20.90
2019-05-18T14:53:55.618Z,20.80
2019-05-18T14:58:03.942Z,20.80
2019-05-18T15:02:22.822Z,20.80
2019-05-18T15:06:46.707Z,20.70
2019-05-18T15:10:54.563Z,20.50
2019-05-18T15:15:01.518Z,20.20
2019-05-18T15:19:08.499Z,20.10
2019-05-18T15:23:14.882Z,20.20
2019-05-18T15:27:29.268Z,20.00
2019-05-18T15:31:35.509Z,19.90
2019-05-18T15:35:41.934Z,19.80
2019-05-18T15:39:49.157Z,19.80
2019-05-18T15:43:56.082Z,19.60
2019-05-18T15:48:04.270Z,19.50
2019-05-18T15:52:13.538Z,19.50
2019-05-18T15:56:21.571Z,19.40
2019-05-18T16:00:28.566Z,19.50
2019-05-18T16:04:35.734Z,19.50
2019-05-18T16:08:43.304Z,19.40
2019-05-18T16:12:50.564Z,19.30
2019-05-18T16:16:56.997Z,19.30
2019-05-18T16:21:04.738Z,19.30
2019-05-18T16:25:14.757Z,19.30
2019-05-18T16:29:23.045Z,19.30
2019-05-18T16:33:47.796Z,19.20
2019-05-18T16:37:55.782Z,19.30
2019-05-18T16:42:03.860Z,19.30
2019-05-18T16:46:11.725Z,19.20
2019-05-18T16:50:22.188Z,19.20
2019-05-18T16:54:33.170Z,19.20
2019-05-18T16:58:58.367Z,19.10
2019-05-18T17:03:05.169Z,19.10
2019-05-18T17:07:12.192Z,19.10
2019-05-18T17:11:28.866Z,19.00
2019-05-18T17:15:36.784Z,18.90
2019-05-18T17:19:43.618Z,18.90
2019-05-18T17:23:53.597Z,18.80
2019-05-18T17:27:59.586Z,18.80
2019-05-18T17:32:07.243Z,18.70
2019-05-18T17:36:15.065Z,18.60
2019-05-18T17:40:38.193Z,18.60
2019-05-18T17:45:04.036Z,18.50
2019-05-18T17:49:26.506Z,18.40
2019-05-18T17:53:28.266Z,18.30
2019-05-18T17:57:53.201Z,18.20
2019-05-18T18:02:02.575Z,18.20
2019-05-18T18:06:09.995Z,18.10
2019-05-18T18:10:22.754Z,18.00
2019-05-18T18:14:29.692Z,17.90
2019-05-18T18:18:36.022Z,17.80
2019-05-18T18:22:48.702Z,17.60
2019-05-18T18:26:56.397Z,17.50
2019-05-18T18:31:13.266Z,17.30
2019-05-18T18:35:39.575Z,17.10
2019-05-18T18:40:06.197Z,17.00
2019-05-18T18:44:30.481Z,16.80
2019-05-18T18:48:40.317Z,16.60
2019-05-18T18:52:47.508Z,16.40
2019-05-18T18:56:54.313Z,16.30
2019-05-18T19:01:01.962Z,16.20
2019-05-18T19:05:12.609Z,16.00
2019-05-18T19:09:19.971Z,15.80
2019-05-18T19:13:26.986Z,15.60
2019-05-18T19:17:38.190Z,15.50
2019-05-18T19:21:45.749Z,15.40
2019-05-18T19:25:58.333Z,15.20
2019-05-18T19:30:10.056Z,15.00
2019-05-18T19:34:15.673Z,14.80
2019-05-18T19:38:28.625Z,14.90
2019-05-18T19:42:36.098Z,14.70
2019-05-18T19:46:42.770Z,14.60
2019-05-18T19:50:51.142Z,14.50
2019-05-18T19:55:16.636Z,14.40
2019-05-18T19:59:36.662Z,14.30
2019-05-18T20:04:01.015Z,14.10
2019-05-18T20:08:25.760Z,13.90
2019-05-18T20:12:50.810Z,13.70
2019-05-18T20:16:59.259Z,13.50
2019-05-18T20:21:23.925Z,13.30
2019-05-18T20:25:52.027Z,13.20
2019-05-18T20:30:17.912Z,13.10
2019-05-18T20:34:43.244Z,13.10
2019-05-18T20:39:08.556Z,13.00
2019-05-18T20:43:16.036Z,12.90
2019-05-18T20:47:41.581Z,12.80
2019-05-18T20:52:07.090Z,12.60
2019-05-18T20:56:31.290Z,12.50
2019-05-18T21:00:39.345Z,12.30
2019-05-18T21:04:59.263Z,12.20
2019-05-18T21:09:06.393Z,12.10
2019-05-18T21:13:31.851Z,12.20
2019-05-18T21:17:56.426Z,12.30
2019-05-18T21:22:20.904Z,12.60
2019-05-18T21:26:29.045Z,12.80
2019-05-18T21:30:35.587Z,12.90
2019-05-18T21:35:00.171Z,12.90
2019-05-18T21:39:08.127Z,12.80
2019-05-18T21:43:32.918Z,12.60
2019-05-18T21:47:58.628Z,12.40
2019-05-18T21:52:05.063Z,12.20
2019-05-18T21:56:11.927Z,12.10
2019-05-18T22:00:22.617Z,12.00
2019-05-18T22:04:48.413Z,11.90
2019-05-18T22:09:12.872Z,11.90
2019-05-18T22:13:50.063Z,11.80
2019-05-18T22:18:24.372Z,11.70
2019-05-18T22:22:24.925Z,11.70
2019-05-18T22:26:50.033Z,11.70
2019-05-18T22:30:57.786Z,11.70
2019-05-18T22:35:23.318Z,11.60
2019-05-18T22:39:33.422Z,11.60
2019-05-18T22:43:58.493Z,11.60
2019-05-18T22:48:06.002Z,11.60
2019-05-18T22:52:30.926Z,11.60
2019-05-18T22:56:55.129Z,11.50
2019-05-18T23:01:19.601Z,11.40
2019-05-18T23:05:26.441Z,11.30
2019-05-18T23:09:51.631Z,11.20
2019-05-18T23:14:15.805Z,11.20
2019-05-18T23:18:54.318Z,11.20
2019-05-18T23:22:49.262Z,11.20
2019-05-18T23:27:14.267Z,11.10
2019-05-18T23:31:39.352Z,11.10
2019-05-18T23:35:57.635Z,11.00
2019-05-18T23:40:06.349Z,11.00
2019-05-18T23:44:31.561Z,11.10
2019-05-18T23:48:39.466Z,11.00
2019-05-18T23:53:04.594Z,11.00
2019-05-18T23:57:11.462Z,11.00
